Main page
METAR-TAF:

METAR-TAF

Airports :

Santander Airport

Santander, Spain

latitude: 43-26N, longitude: 003-49W, elevation: 6 m

Current weather observation

The report was made 36 minutes ago, at 18:30 UTC
Wind 8 kt from the South/Southwest, varying between South/Southeast and West
Temperature 15°C
Humidity 55%
Pressure 1008 hPa
Visibility 10 km or more
no clouds below 1500 m and no cumulonimbus

METAR: LEXJ 211830Z 21008KT 150V260 CAVOK 15/06 Q1008

Time: 20:06 (19:06 UTC)

Forecast

The report was made 1 hour and 24 minutes ago, at 17:42 UTC
Forecast valid from 21 at 17 UTC to 22 at 15 UTC
Wind 9 kt from the South
Visibility 10 km or more
Scattered clouds at a height of 6000 ft
Temporary
from 21 at 18 UTC to 22 at 15 UTC
Wind 15 kt from the South/Southwest with gusts up to 28 kt

TAF: LEXJ 211742Z 2117/2215 19009KT 9999 SCT060 TX16/2215Z TN09/2206Z TEMPO 2118/2215 20015G28KT

Weather observations and forecasts of more than 4000 airports (METAR and TAF reports).

The available stations are represented by yellow and red dots on the map.

Hover mouse over dot to see the name of the station.

Then click to see weather observations and forecasts.

To change the map : click on the green buttons with a black cross to zoom in, on the green button with a dash to zoom out, or on the green arrows for adjacent maps.


METAR-TAF: